createdAt,value
2022-11-19T00:00:03.184Z,100.0
2022-11-19T00:15:02.614Z,100.0
2022-11-19T00:30:07.929Z,100.0
2022-11-19T00:45:02.514Z,100.0
2022-11-19T01:00:03.005Z,100.0
2022-11-19T01:15:02.373Z,100.0
2022-11-19T01:30:02.992Z,100.0
2022-11-19T01:45:02.183Z,100.0
2022-11-19T02:00:02.565Z,100.0
2022-11-19T02:15:03.030Z,100.0
2022-11-19T02:30:02.353Z,100.0
2022-11-19T02:45:02.781Z,100.0
2022-11-19T03:00:03.159Z,100.0
2022-11-19T03:15:02.546Z,100.0
2022-11-19T03:30:03.027Z,100.0
2022-11-19T03:45:02.374Z,100.0
2022-11-19T04:00:03.040Z,100.0
2022-11-19T04:15:02.259Z,100.0
2022-11-19T04:30:02.733Z,100.0
2022-11-19T04:45:03.196Z,100.0
2022-11-19T05:00:02.648Z,100.0
2022-11-19T05:15:03.079Z,100.0
2022-11-19T05:30:02.464Z,100.0
2022-11-19T05:45:03.069Z,100.0
2022-11-19T06:00:02.393Z,100.0
2022-11-19T06:15:02.819Z,100.0
2022-11-19T06:30:02.264Z,100.0
2022-11-19T06:45:02.712Z,100.0
2022-11-19T07:00:03.155Z,100.0
2022-11-19T07:15:04.540Z,100.0
2022-11-19T07:30:02.097Z,100.0
2022-11-19T07:45:02.453Z,100.0
2022-11-19T08:00:03.095Z,100.0
2022-11-19T08:15:02.352Z,100.0
2022-11-19T08:30:02.790Z,100.0
2022-11-19T08:45:03.191Z,100.0
2022-11-19T09:00:06.232Z,100.0
2022-11-19T09:15:03.129Z,99.7
2022-11-19T09:30:02.508Z,98.2
2022-11-19T09:45:03.129Z,98.6
2022-11-19T10:00:02.361Z,99.8
2022-11-19T10:15:02.836Z,100.0
2022-11-19T10:30:02.259Z,100.0
2022-11-19T10:45:02.689Z,100.0
2022-11-19T11:00:03.148Z,99.9
2022-11-19T11:15:02.600Z,100.0
2022-11-19T11:30:03.144Z,99.4
2022-11-19T11:45:02.473Z,99.5
2022-11-19T12:00:03.113Z,100.0
2022-11-19T12:15:02.374Z,98.3
2022-11-19T12:30:02.795Z,98.6
2022-11-19T12:45:03.198Z,98.1
2022-11-19T13:00:02.663Z,99.3
2022-11-19T13:15:03.176Z,99.9
2022-11-19T13:30:02.527Z,99.5
2022-11-19T13:45:03.174Z,99.1
2022-11-19T14:00:02.395Z,98.8
2022-11-19T14:15:02.841Z,98.5
2022-11-19T14:30:02.277Z,98.2
2022-11-19T14:45:02.713Z,98.0
2022-11-19T15:00:03.173Z,97.5
2022-11-19T15:15:02.594Z,97.5
2022-11-19T15:30:03.256Z,97.6
2022-11-19T15:45:02.430Z,97.8
2022-11-19T16:00:02.970Z,97.7
2022-11-19T16:15:02.343Z,98.2
2022-11-19T16:30:02.804Z,98.5
2022-11-19T16:45:03.216Z,98.8
2022-11-19T17:00:02.689Z,98.5
2022-11-19T17:15:03.211Z,98.5
2022-11-19T17:30:02.566Z,98.7
2022-11-19T17:45:09.216Z,99.0
2022-11-19T18:00:03.430Z,99.0
2022-11-19T18:15:02.875Z,98.9
2022-11-19T18:30:02.296Z,98.8
2022-11-19T18:45:02.730Z,99.1
2022-11-19T19:00:03.235Z,99.1
2022-11-19T19:15:02.600Z,99.1
2022-11-19T19:30:03.248Z,99.2
2022-11-19T19:45:02.471Z,99.2
2022-11-19T20:00:02.910Z,99.2
2022-11-19T20:15:02.335Z,99.3
2022-11-19T20:30:03.532Z,99.4
2022-11-19T20:45:03.262Z,99.1
2022-11-19T21:00:02.628Z,99.1
2022-11-19T21:15:03.283Z,99.1
2022-11-19T21:30:02.518Z,99.1
2022-11-19T21:45:02.964Z,99.1
2022-11-19T22:00:02.386Z,99.2
2022-11-19T22:15:02.852Z,99.2
2022-11-19T22:30:05.852Z,99.1
2022-11-19T22:45:02.729Z,99.1
2022-11-19T23:00:03.304Z,99.1
2022-11-19T23:30:03.038Z,99.1
2022-11-19T23:45:02.452Z,99.1
